sensor_id;sensor_type;location;lat;lon;timestamp;P1;durP1;ratioP1;P2;durP2;ratioP2
1991;SDS011;997;48.448;8.924;2024-02-23T00:01:27;0.60;;;0.60;;
1991;SDS011;997;48.448;8.924;2024-02-23T00:03:53;0.63;;;0.63;;
1991;SDS011;997;48.448;8.924;2024-02-23T00:06:20;1.43;;;0.80;;
1991;SDS011;997;48.448;8.924;2024-02-23T00:08:47;0.60;;;0.60;;
1991;SDS011;997;48.448;8.924;2024-02-23T00:11:13;2.10;;;0.70;;
1991;SDS011;997;48.448;8.924;2024-02-23T00:13:39;1.97;;;0.70;;
1991;SDS011;997;48.448;8.924;2024-02-23T00:16:04;3.00;;;0.90;;
1991;SDS011;997;48.448;8.924;2024-02-23T00:18:30;1.20;;;0.90;;
1991;SDS011;997;48.448;8.924;2024-02-23T00:20:56;0.70;;;0.70;;
1991;SDS011;997;48.448;8.924;2024-02-23T00:23:21;1.43;;;1.33;;
1991;SDS011;997;48.448;8.924;2024-02-23T00:25:47;1.47;;;1.13;;
1991;SDS011;997;48.448;8.924;2024-02-23T00:28:13;1.60;;;0.70;;
1991;SDS011;997;48.448;8.924;2024-02-23T00:30:38;0.70;;;0.63;;
1991;SDS011;997;48.448;8.924;2024-02-23T00:33:04;0.60;;;0.60;;
1991;SDS011;997;48.448;8.924;2024-02-23T00:35:30;1.93;;;0.90;;
1991;SDS011;997;48.448;8.924;2024-02-23T00:37:55;0.70;;;0.70;;
1991;SDS011;997;48.448;8.924;2024-02-23T00:40:21;0.97;;;0.90;;
1991;SDS011;997;48.448;8.924;2024-02-23T00:42:48;1.37;;;0.90;;
1991;SDS011;997;48.448;8.924;2024-02-23T00:45:14;1.83;;;0.87;;
1991;SDS011;997;48.448;8.924;2024-02-23T00:47:40;0.80;;;0.80;;
1991;SDS011;997;48.448;8.924;2024-02-23T00:50:05;0.90;;;0.63;;
1991;SDS011;997;48.448;8.924;2024-02-23T00:52:31;0.93;;;0.80;;
1991;SDS011;997;48.448;8.924;2024-02-23T00:54:57;0.63;;;0.60;;
1991;SDS011;997;48.448;8.924;2024-02-23T00:57:23;0.80;;;0.80;;
1991;SDS011;997;48.448;8.924;2024-02-23T00:59:54;0.80;;;0.60;;
1991;SDS011;997;48.448;8.924;2024-02-23T01:02:23;0.70;;;0.70;;
1991;SDS011;997;48.448;8.924;2024-02-23T01:04:48;2.93;;;1.27;;
1991;SDS011;997;48.448;8.924;2024-02-23T01:07:14;1.53;;;0.70;;
1991;SDS011;997;48.448;8.924;2024-02-23T01:09:40;1.03;;;0.83;;
1991;SDS011;997;48.448;8.924;2024-02-23T01:12:05;0.83;;;0.83;;
1991;SDS011;997;48.448;8.924;2024-02-23T01:14:31;1.43;;;0.80;;
1991;SDS011;997;48.448;8.924;2024-02-23T01:16:57;5.90;;;1.90;;
1991;SDS011;997;48.448;8.924;2024-02-23T01:19:22;5.17;;;2.80;;
1991;SDS011;997;48.448;8.924;2024-02-23T01:21:48;0.87;;;0.60;;
1991;SDS011;997;48.448;8.924;2024-02-23T01:24:21;1.37;;;0.90;;
1991;SDS011;997;48.448;8.924;2024-02-23T01:26:47;1.60;;;0.60;;
1991;SDS011;997;48.448;8.924;2024-02-23T01:29:12;0.73;;;0.70;;
1991;SDS011;997;48.448;8.924;2024-02-23T01:31:38;0.70;;;0.70;;
1991;SDS011;997;48.448;8.924;2024-02-23T01:34:04;0.80;;;0.80;;
1991;SDS011;997;48.448;8.924;2024-02-23T01:36:29;0.60;;;0.60;;
1991;SDS011;997;48.448;8.924;2024-02-23T01:38:55;0.67;;;0.67;;
1991;SDS011;997;48.448;8.924;2024-02-23T01:41:21;2.90;;;0.80;;
1991;SDS011;997;48.448;8.924;2024-02-23T01:43:46;0.70;;;0.70;;
1991;SDS011;997;48.448;8.924;2024-02-23T01:46:12;0.70;;;0.60;;
1991;SDS011;997;48.448;8.924;2024-02-23T01:48:38;0.80;;;0.80;;
1991;SDS011;997;48.448;8.924;2024-02-23T01:51:04;0.70;;;0.70;;
1991;SDS011;997;48.448;8.924;2024-02-23T01:53:30;0.73;;;0.73;;
1991;SDS011;997;48.448;8.924;2024-02-23T01:55:56;0.77;;;0.77;;
1991;SDS011;997;48.448;8.924;2024-02-23T01:58:24;1.77;;;0.87;;
1991;SDS011;997;48.448;8.924;2024-02-23T02:00:50;1.63;;;0.80;;
1991;SDS011;997;48.448;8.924;2024-02-23T02:03:15;0.67;;;0.67;;
1991;SDS011;997;48.448;8.924;2024-02-23T02:05:41;0.70;;;0.70;;
1991;SDS011;997;48.448;8.924;2024-02-23T02:08:07;0.93;;;0.77;;
1991;SDS011;997;48.448;8.924;2024-02-23T02:10:32;0.80;;;0.70;;
1991;SDS011;997;48.448;8.924;2024-02-23T02:13:02;0.80;;;0.80;;
1991;SDS011;997;48.448;8.924;2024-02-23T02:15:29;0.60;;;0.60;;
1991;SDS011;997;48.448;8.924;2024-02-23T02:17:55;0.70;;;0.70;;
1991;SDS011;997;48.448;8.924;2024-02-23T02:20:23;0.70;;;0.70;;
1991;SDS011;997;48.448;8.924;2024-02-23T02:22:50;0.50;;;0.50;;
1991;SDS011;997;48.448;8.924;2024-02-23T02:25:16;0.60;;;0.60;;
1991;SDS011;997;48.448;8.924;2024-02-23T02:27:41;1.20;;;0.90;;
1991;SDS011;997;48.448;8.924;2024-02-23T02:30:07;2.13;;;1.13;;
1991;SDS011;997;48.448;8.924;2024-02-23T02:32:35;2.93;;;1.73;;
1991;SDS011;997;48.448;8.924;2024-02-23T02:35:00;3.40;;;2.77;;
1991;SDS011;997;48.448;8.924;2024-02-23T02:37:26;6.67;;;3.80;;
1991;SDS011;997;48.448;8.924;2024-02-23T02:39:52;12.67;;;5.63;;
1991;SDS011;997;48.448;8.924;2024-02-23T02:42:17;14.20;;;6.80;;
1991;SDS011;997;48.448;8.924;2024-02-23T02:44:43;5.87;;;4.47;;
1991;SDS011;997;48.448;8.924;2024-02-23T02:47:09;4.20;;;3.80;;
1991;SDS011;997;48.448;8.924;2024-02-23T02:49:34;1.40;;;1.30;;
1991;SDS011;997;48.448;8.924;2024-02-23T02:52:00;1.00;;;0.90;;
1991;SDS011;997;48.448;8.924;2024-02-23T02:54:26;1.20;;;0.87;;
1991;SDS011;997;48.448;8.924;2024-02-23T02:56:52;0.83;;;0.80;;
1991;SDS011;997;48.448;8.924;2024-02-23T02:59:19;3.60;;;0.97;;
1991;SDS011;997;48.448;8.924;2024-02-23T03:01:45;0.80;;;0.80;;
1991;SDS011;997;48.448;8.924;2024-02-23T03:04:12;0.90;;;0.70;;
1991;SDS011;997;48.448;8.924;2024-02-23T03:06:38;0.63;;;0.63;;
1991;SDS011;997;48.448;8.924;2024-02-23T03:09:03;0.67;;;0.60;;
1991;SDS011;997;48.448;8.924;2024-02-23T03:11:30;3.03;;;1.93;;
1991;SDS011;997;48.448;8.924;2024-02-23T03:13:55;1.33;;;0.73;;
1991;SDS011;997;48.448;8.924;2024-02-23T03:16:21;0.87;;;0.80;;
1991;SDS011;997;48.448;8.924;2024-02-23T03:18:51;2.30;;;1.43;;
1991;SDS011;997;48.448;8.924;2024-02-23T03:21:19;1.13;;;0.60;;
1991;SDS011;997;48.448;8.924;2024-02-23T03:23:45;1.37;;;1.27;;
1991;SDS011;997;48.448;8.924;2024-02-23T03:26:10;0.80;;;0.80;;
1991;SDS011;997;48.448;8.924;2024-02-23T03:28:36;0.80;;;0.80;;
1991;SDS011;997;48.448;8.924;2024-02-23T03:31:02;0.80;;;0.80;;
1991;SDS011;997;48.448;8.924;2024-02-23T03:33:27;1.17;;;0.70;;
1991;SDS011;997;48.448;8.924;2024-02-23T03:35:53;2.50;;;1.27;;
1991;SDS011;997;48.448;8.924;2024-02-23T03:38:20;1.00;;;0.77;;
1991;SDS011;997;48.448;8.924;2024-02-23T03:40:46;0.93;;;0.90;;
1991;SDS011;997;48.448;8.924;2024-02-23T03:43:11;0.83;;;0.83;;
1991;SDS011;997;48.448;8.924;2024-02-23T03:45:37;0.77;;;0.77;;
1991;SDS011;997;48.448;8.924;2024-02-23T03:48:03;0.70;;;0.70;;
1991;SDS011;997;48.448;8.924;2024-02-23T03:50:29;2.97;;;2.70;;
1991;SDS011;997;48.448;8.924;2024-02-23T03:52:55;2.10;;;0.90;;
1991;SDS011;997;48.448;8.924;2024-02-23T03:55:21;0.80;;;0.80;;
1991;SDS011;997;48.448;8.924;2024-02-23T03:57:47;0.80;;;0.63;;
1991;SDS011;997;48.448;8.924;2024-02-23T04:00:13;3.73;;;1.20;;
1991;SDS011;997;48.448;8.924;2024-02-23T04:02:39;1.20;;;1.10;;
1991;SDS011;997;48.448;8.924;2024-02-23T04:05:05;1.30;;;1.20;;
1991;SDS011;997;48.448;8.924;2024-02-23T04:07:31;1.20;;;1.10;;
1991;SDS011;997;48.448;8.924;2024-02-23T04:09:56;0.90;;;0.80;;
1991;SDS011;997;48.448;8.924;2024-02-23T04:12:22;2.10;;;2.00;;
1991;SDS011;997;48.448;8.924;2024-02-23T04:14:48;0.80;;;0.80;;
1991;SDS011;997;48.448;8.924;2024-02-23T04:17:15;1.97;;;1.10;;
1991;SDS011;997;48.448;8.924;2024-02-23T04:19:41;1.33;;;1.10;;
1991;SDS011;997;48.448;8.924;2024-02-23T04:22:08;1.57;;;1.23;;
1991;SDS011;997;48.448;8.924;2024-02-23T04:24:40;1.30;;;1.00;;
1991;SDS011;997;48.448;8.924;2024-02-23T04:27:06;1.20;;;1.10;;
1991;SDS011;997;48.448;8.924;2024-02-23T04:29:33;1.10;;;0.80;;
1991;SDS011;997;48.448;8.924;2024-02-23T04:31:59;0.93;;;0.90;;
1991;SDS011;997;48.448;8.924;2024-02-23T04:34:26;1.90;;;0.80;;
1991;SDS011;997;48.448;8.924;2024-02-23T04:36:52;1.07;;;1.00;;
1991;SDS011;997;48.448;8.924;2024-02-23T04:39:18;1.27;;;1.17;;
1991;SDS011;997;48.448;8.924;2024-02-23T04:41:44;2.43;;;1.30;;
1991;SDS011;997;48.448;8.924;2024-02-23T04:44:09;1.17;;;0.83;;
1991;SDS011;997;48.448;8.924;2024-02-23T04:46:35;1.30;;;1.20;;
1991;SDS011;997;48.448;8.924;2024-02-23T04:49:01;2.40;;;0.83;;
1991;SDS011;997;48.448;8.924;2024-02-23T04:51:27;1.40;;;1.30;;
1991;SDS011;997;48.448;8.924;2024-02-23T04:53:53;1.10;;;0.80;;
1991;SDS011;997;48.448;8.924;2024-02-23T04:56:18;1.03;;;0.80;;
1991;SDS011;997;48.448;8.924;2024-02-23T04:58:45;1.90;;;1.30;;
1991;SDS011;997;48.448;8.924;2024-02-23T05:01:11;1.93;;;1.40;;
1991;SDS011;997;48.448;8.924;2024-02-23T05:03:37;1.60;;;1.50;;
1991;SDS011;997;48.448;8.924;2024-02-23T05:06:03;3.33;;;1.07;;
1991;SDS011;997;48.448;8.924;2024-02-23T05:08:29;1.00;;;1.00;;
1991;SDS011;997;48.448;8.924;2024-02-23T05:10:55;1.30;;;1.07;;
1991;SDS011;997;48.448;8.924;2024-02-23T05:13:22;1.20;;;1.10;;
1991;SDS011;997;48.448;8.924;2024-02-23T05:15:48;1.93;;;1.00;;
1991;SDS011;997;48.448;8.924;2024-02-23T05:18:13;1.00;;;1.00;;
1991;SDS011;997;48.448;8.924;2024-02-23T05:20:39;2.13;;;1.27;;
1991;SDS011;997;48.448;8.924;2024-02-23T05:23:04;1.73;;;1.13;;
1991;SDS011;997;48.448;8.924;2024-02-23T05:25:30;3.93;;;2.50;;
1991;SDS011;997;48.448;8.924;2024-02-23T05:27:56;6.93;;;4.70;;
1991;SDS011;997;48.448;8.924;2024-02-23T05:30:21;5.07;;;4.53;;
1991;SDS011;997;48.448;8.924;2024-02-23T05:32:47;6.40;;;5.13;;
1991;SDS011;997;48.448;8.924;2024-02-23T05:35:13;5.50;;;4.63;;
1991;SDS011;997;48.448;8.924;2024-02-23T05:37:40;11.60;;;8.63;;
1991;SDS011;997;48.448;8.924;2024-02-23T05:40:07;13.90;;;7.43;;
1991;SDS011;997;48.448;8.924;2024-02-23T05:42:38;5.90;;;3.53;;
1991;SDS011;997;48.448;8.924;2024-02-23T05:45:04;4.27;;;3.00;;
1991;SDS011;997;48.448;8.924;2024-02-23T05:47:33;4.00;;;2.07;;
1991;SDS011;997;48.448;8.924;2024-02-23T05:50:03;2.80;;;1.70;;
1991;SDS011;997;48.448;8.924;2024-02-23T05:52:32;2.00;;;1.73;;
1991;SDS011;997;48.448;8.924;2024-02-23T05:54:59;1.90;;;1.50;;
1991;SDS011;997;48.448;8.924;2024-02-23T05:57:28;1.50;;;1.40;;
1991;SDS011;997;48.448;8.924;2024-02-23T05:59:53;3.17;;;1.80;;
1991;SDS011;997;48.448;8.924;2024-02-23T06:02:20;3.27;;;2.23;;
1991;SDS011;997;48.448;8.924;2024-02-23T06:04:49;1.70;;;1.50;;
1991;SDS011;997;48.448;8.924;2024-02-23T06:07:14;2.00;;;1.07;;
1991;SDS011;997;48.448;8.924;2024-02-23T06:09:44;2.90;;;1.60;;
1991;SDS011;997;48.448;8.924;2024-02-23T06:12:09;1.73;;;1.53;;
1991;SDS011;997;48.448;8.924;2024-02-23T06:14:35;2.83;;;1.57;;
1991;SDS011;997;48.448;8.924;2024-02-23T06:17:01;2.90;;;1.33;;
1991;SDS011;997;48.448;8.924;2024-02-23T06:19:28;4.60;;;2.00;;
1991;SDS011;997;48.448;8.924;2024-02-23T06:21:53;1.90;;;1.33;;
1991;SDS011;997;48.448;8.924;2024-02-23T06:24:19;1.60;;;1.50;;
1991;SDS011;997;48.448;8.924;2024-02-23T06:26:45;6.03;;;2.37;;
1991;SDS011;997;48.448;8.924;2024-02-23T06:29:11;2.53;;;2.20;;
1991;SDS011;997;48.448;8.924;2024-02-23T06:31:38;1.90;;;1.27;;
1991;SDS011;997;48.448;8.924;2024-02-23T06:34:05;0.90;;;0.90;;
1991;SDS011;997;48.448;8.924;2024-02-23T06:36:31;1.90;;;1.00;;
1991;SDS011;997;48.448;8.924;2024-02-23T06:38:56;1.33;;;1.23;;
1991;SDS011;997;48.448;8.924;2024-02-23T06:41:22;2.20;;;1.07;;
1991;SDS011;997;48.448;8.924;2024-02-23T06:43:48;1.70;;;1.60;;
1991;SDS011;997;48.448;8.924;2024-02-23T06:46:13;1.97;;;1.87;;
1991;SDS011;997;48.448;8.924;2024-02-23T06:48:39;2.00;;;1.20;;
1991;SDS011;997;48.448;8.924;2024-02-23T06:51:05;2.40;;;1.40;;
1991;SDS011;997;48.448;8.924;2024-02-23T06:53:34;1.40;;;1.30;;
1991;SDS011;997;48.448;8.924;2024-02-23T06:56:00;2.23;;;1.40;;
1991;SDS011;997;48.448;8.924;2024-02-23T06:58:27;1.93;;;1.30;;
1991;SDS011;997;48.448;8.924;2024-02-23T07:00:53;1.50;;;1.30;;
1991;SDS011;997;48.448;8.924;2024-02-23T07:03:18;2.60;;;1.10;;
1991;SDS011;997;48.448;8.924;2024-02-23T07:05:44;1.20;;;0.90;;
1991;SDS011;997;48.448;8.924;2024-02-23T07:08:14;3.80;;;1.43;;
1991;SDS011;997;48.448;8.924;2024-02-23T07:10:40;4.17;;;2.30;;
1991;SDS011;997;48.448;8.924;2024-02-23T07:13:06;1.80;;;1.40;;
1991;SDS011;997;48.448;8.924;2024-02-23T07:15:32;3.67;;;1.90;;
1991;SDS011;997;48.448;8.924;2024-02-23T07:17:58;2.73;;;1.63;;
1991;SDS011;997;48.448;8.924;2024-02-23T07:20:24;6.13;;;2.10;;
1991;SDS011;997;48.448;8.924;2024-02-23T07:22:50;2.80;;;1.53;;
1991;SDS011;997;48.448;8.924;2024-02-23T07:25:16;3.50;;;1.50;;
1991;SDS011;997;48.448;8.924;2024-02-23T07:27:42;4.33;;;1.80;;
1991;SDS011;997;48.448;8.924;2024-02-23T07:30:08;2.60;;;1.40;;
1991;SDS011;997;48.448;8.924;2024-02-23T07:32:35;2.80;;;1.93;;
1991;SDS011;997;48.448;8.924;2024-02-23T07:35:00;3.17;;;1.47;;
1991;SDS011;997;48.448;8.924;2024-02-23T07:37:26;2.23;;;1.40;;
1991;SDS011;997;48.448;8.924;2024-02-23T07:39:52;2.50;;;1.13;;
1991;SDS011;997;48.448;8.924;2024-02-23T07:42:18;1.77;;;1.60;;
1991;SDS011;997;48.448;8.924;2024-02-23T07:44:44;1.50;;;1.03;;
1991;SDS011;997;48.448;8.924;2024-02-23T07:47:11;3.00;;;1.23;;
1991;SDS011;997;48.448;8.924;2024-02-23T07:49:37;6.10;;;1.73;;
1991;SDS011;997;48.448;8.924;2024-02-23T07:52:03;1.00;;;0.90;;
1991;SDS011;997;48.448;8.924;2024-02-23T07:54:29;2.13;;;1.40;;
1991;SDS011;997;48.448;8.924;2024-02-23T07:56:54;1.93;;;1.43;;
1991;SDS011;997;48.448;8.924;2024-02-23T07:59:22;1.90;;;1.47;;
1991;SDS011;997;48.448;8.924;2024-02-23T08:01:48;1.53;;;1.40;;
1991;SDS011;997;48.448;8.924;2024-02-23T08:04:13;2.20;;;1.80;;
1991;SDS011;997;48.448;8.924;2024-02-23T08:06:39;1.90;;;1.80;;
1991;SDS011;997;48.448;8.924;2024-02-23T08:09:05;3.20;;;2.37;;
1991;SDS011;997;48.448;8.924;2024-02-23T08:11:32;1.60;;;1.50;;
1991;SDS011;997;48.448;8.924;2024-02-23T08:13:58;3.07;;;1.83;;
1991;SDS011;997;48.448;8.924;2024-02-23T08:16:23;3.70;;;1.70;;
1991;SDS011;997;48.448;8.924;2024-02-23T08:18:49;3.43;;;1.67;;
1991;SDS011;997;48.448;8.924;2024-02-23T08:21:15;3.13;;;1.53;;
1991;SDS011;997;48.448;8.924;2024-02-23T08:23:40;5.70;;;1.77;;
1991;SDS011;997;48.448;8.924;2024-02-23T08:26:06;2.10;;;2.00;;
1991;SDS011;997;48.448;8.924;2024-02-23T08:28:32;5.23;;;1.70;;
1991;SDS011;997;48.448;8.924;2024-02-23T08:30:57;5.30;;;1.90;;
1991;SDS011;997;48.448;8.924;2024-02-23T08:33:23;1.90;;;1.80;;
1991;SDS011;997;48.448;8.924;2024-02-23T08:35:48;2.75;;;1.80;;
1991;SDS011;997;48.448;8.924;2024-02-23T08:38:14;2.80;;;1.30;;
1991;SDS011;997;48.448;8.924;2024-02-23T08:40:40;4.40;;;2.80;;
1991;SDS011;997;48.448;8.924;2024-02-23T08:43:07;3.33;;;1.60;;
1991;SDS011;997;48.448;8.924;2024-02-23T08:45:32;6.27;;;1.43;;
1991;SDS011;997;48.448;8.924;2024-02-23T08:47:58;15.43;;;6.70;;
1991;SDS011;997;48.448;8.924;2024-02-23T08:50:24;4.27;;;3.80;;
1991;SDS011;997;48.448;8.924;2024-02-23T08:52:50;3.67;;;3.23;;
1991;SDS011;997;48.448;8.924;2024-02-23T08:55:15;2.70;;;1.73;;
1991;SDS011;997;48.448;8.924;2024-02-23T08:57:41;2.77;;;2.47;;
1991;SDS011;997;48.448;8.924;2024-02-23T09:00:07;2.30;;;2.10;;
1991;SDS011;997;48.448;8.924;2024-02-23T09:02:33;1.20;;;1.10;;
1991;SDS011;997;48.448;8.924;2024-02-23T09:05:00;2.20;;;1.70;;
1991;SDS011;997;48.448;8.924;2024-02-23T09:07:26;1.37;;;1.00;;
1991;SDS011;997;48.448;8.924;2024-02-23T09:09:52;8.60;;;2.20;;
1991;SDS011;997;48.448;8.924;2024-02-23T09:12:18;4.27;;;1.70;;
1991;SDS011;997;48.448;8.924;2024-02-23T09:14:44;3.63;;;1.50;;
1991;SDS011;997;48.448;8.924;2024-02-23T09:17:10;3.37;;;2.10;;
1991;SDS011;997;48.448;8.924;2024-02-23T09:19:37;6.07;;;2.00;;
1991;SDS011;997;48.448;8.924;2024-02-23T09:22:03;3.23;;;1.63;;
1991;SDS011;997;48.448;8.924;2024-02-23T09:24:29;4.63;;;2.10;;
1991;SDS011;997;48.448;8.924;2024-02-23T09:26:54;7.73;;;2.03;;
1991;SDS011;997;48.448;8.924;2024-02-23T09:29:20;3.27;;;1.40;;
1991;SDS011;997;48.448;8.924;2024-02-23T09:31:46;4.17;;;1.73;;
1991;SDS011;997;48.448;8.924;2024-02-23T09:34:12;5.13;;;1.87;;
1991;SDS011;997;48.448;8.924;2024-02-23T09:36:38;6.17;;;1.97;;
1991;SDS011;997;48.448;8.924;2024-02-23T09:39:04;1.83;;;1.60;;
1991;SDS011;997;48.448;8.924;2024-02-23T09:41:30;6.40;;;1.63;;
1991;SDS011;997;48.448;8.924;2024-02-23T09:43:59;2.87;;;1.47;;
1991;SDS011;997;48.448;8.924;2024-02-23T09:46:26;1.17;;;1.07;;
1991;SDS011;997;48.448;8.924;2024-02-23T09:48:52;3.20;;;1.40;;
1991;SDS011;997;48.448;8.924;2024-02-23T09:51:20;3.23;;;2.07;;
1991;SDS011;997;48.448;8.924;2024-02-23T09:53:48;2.83;;;1.13;;
1991;SDS011;997;48.448;8.924;2024-02-23T09:56:15;2.40;;;1.83;;
1991;SDS011;997;48.448;8.924;2024-02-23T09:58:43;2.73;;;1.03;;
1991;SDS011;997;48.448;8.924;2024-02-23T10:01:12;4.17;;;1.90;;
1991;SDS011;997;48.448;8.924;2024-02-23T10:03:40;2.77;;;1.50;;
1991;SDS011;997;48.448;8.924;2024-02-23T10:06:07;4.83;;;1.33;;
1991;SDS011;997;48.448;8.924;2024-02-23T10:08:32;15.43;;;7.80;;
1991;SDS011;997;48.448;8.924;2024-02-23T10:11:00;4.23;;;2.07;;
1991;SDS011;997;48.448;8.924;2024-02-23T10:13:26;2.40;;;1.13;;
1991;SDS011;997;48.448;8.924;2024-02-23T10:15:52;4.00;;;1.23;;
1991;SDS011;997;48.448;8.924;2024-02-23T10:18:18;2.97;;;1.47;;
1991;SDS011;997;48.448;8.924;2024-02-23T10:20:44;2.50;;;1.57;;
1991;SDS011;997;48.448;8.924;2024-02-23T10:23:11;3.20;;;1.40;;
1991;SDS011;997;48.448;8.924;2024-02-23T10:25:37;2.40;;;1.30;;
1991;SDS011;997;48.448;8.924;2024-02-23T10:28:03;1.80;;;1.70;;
1991;SDS011;997;48.448;8.924;2024-02-23T10:30:29;3.83;;;1.40;;
1991;SDS011;997;48.448;8.924;2024-02-23T10:32:56;2.27;;;1.83;;
1991;SDS011;997;48.448;8.924;2024-02-23T10:35:23;5.03;;;1.93;;
1991;SDS011;997;48.448;8.924;2024-02-23T10:37:50;2.00;;;1.13;;
1991;SDS011;997;48.448;8.924;2024-02-23T10:40:18;3.13;;;1.60;;
1991;SDS011;997;48.448;8.924;2024-02-23T10:42:45;1.77;;;1.27;;
1991;SDS011;997;48.448;8.924;2024-02-23T10:45:14;5.33;;;2.33;;
1991;SDS011;997;48.448;8.924;2024-02-23T10:47:41;1.60;;;0.90;;
1991;SDS011;997;48.448;8.924;2024-02-23T10:50:08;2.60;;;1.63;;
1991;SDS011;997;48.448;8.924;2024-02-23T10:52:35;3.20;;;1.20;;
1991;SDS011;997;48.448;8.924;2024-02-23T10:55:01;1.50;;;0.90;;
1991;SDS011;997;48.448;8.924;2024-02-23T10:57:30;2.73;;;1.50;;
1991;SDS011;997;48.448;8.924;2024-02-23T10:59:59;3.10;;;1.80;;
1991;SDS011;997;48.448;8.924;2024-02-23T11:02:26;2.60;;;1.40;;
1991;SDS011;997;48.448;8.924;2024-02-23T11:04:54;3.40;;;1.43;;
1991;SDS011;997;48.448;8.924;2024-02-23T11:07:22;2.97;;;1.40;;
1991;SDS011;997;48.448;8.924;2024-02-23T11:10:08;2.57;;;1.73;;
1991;SDS011;997;48.448;8.924;2024-02-23T11:12:38;1.20;;;1.13;;
1991;SDS011;997;48.448;8.924;2024-02-23T11:15:04;3.17;;;1.37;;
1991;SDS011;997;48.448;8.924;2024-02-23T11:17:30;2.40;;;1.67;;
1991;SDS011;997;48.448;8.924;2024-02-23T11:19:57;4.27;;;1.43;;
1991;SDS011;997;48.448;8.924;2024-02-23T11:22:24;3.53;;;1.57;;
1991;SDS011;997;48.448;8.924;2024-02-23T11:24:59;4.30;;;2.00;;
1991;SDS011;997;48.448;8.924;2024-02-23T11:27:29;4.30;;;1.70;;
1991;SDS011;997;48.448;8.924;2024-02-23T11:29:59;2.47;;;1.80;;
1991;SDS011;997;48.448;8.924;2024-02-23T11:32:41;3.40;;;1.23;;
1991;SDS011;997;48.448;8.924;2024-02-23T11:35:13;6.00;;;1.80;;
1991;SDS011;997;48.448;8.924;2024-02-23T11:37:58;2.90;;;1.33;;
1991;SDS011;997;48.448;8.924;2024-02-23T11:40:30;4.80;;;1.53;;
1991;SDS011;997;48.448;8.924;2024-02-23T11:42:57;3.30;;;1.13;;
1991;SDS011;997;48.448;8.924;2024-02-23T11:45:25;2.40;;;1.30;;
1991;SDS011;997;48.448;8.924;2024-02-23T11:47:52;4.40;;;1.50;;
1991;SDS011;997;48.448;8.924;2024-02-23T11:50:18;1.30;;;0.90;;
1991;SDS011;997;48.448;8.924;2024-02-23T11:52:47;2.90;;;1.90;;
1991;SDS011;997;48.448;8.924;2024-02-23T11:55:17;4.83;;;1.93;;
1991;SDS011;997;48.448;8.924;2024-02-23T11:57:47;1.63;;;1.40;;
1991;SDS011;997;48.448;8.924;2024-02-23T12:00:14;2.60;;;1.37;;
1991;SDS011;997;48.448;8.924;2024-02-23T12:02:40;5.70;;;1.60;;
1991;SDS011;997;48.448;8.924;2024-02-23T12:05:06;2.70;;;1.13;;
1991;SDS011;997;48.448;8.924;2024-02-23T12:07:32;3.10;;;1.50;;
1991;SDS011;997;48.448;8.924;2024-02-23T12:09:59;4.90;;;2.10;;
1991;SDS011;997;48.448;8.924;2024-02-23T12:12:25;4.13;;;1.87;;
1991;SDS011;997;48.448;8.924;2024-02-23T12:14:51;2.93;;;1.83;;
1991;SDS011;997;48.448;8.924;2024-02-23T12:17:17;3.80;;;3.50;;
1991;SDS011;997;48.448;8.924;2024-02-23T12:19:43;3.57;;;2.23;;
1991;SDS011;997;48.448;8.924;2024-02-23T12:22:09;6.43;;;2.97;;
1991;SDS011;997;48.448;8.924;2024-02-23T12:24:36;3.40;;;3.07;;
1991;SDS011;997;48.448;8.924;2024-02-23T12:27:02;9.00;;;2.90;;
1991;SDS011;997;48.448;8.924;2024-02-23T12:29:27;4.20;;;3.90;;
1991;SDS011;997;48.448;8.924;2024-02-23T12:32:05;11.83;;;10.90;;
1991;SDS011;997;48.448;8.924;2024-02-23T12:34:32;7.60;;;6.43;;
1991;SDS011;997;48.448;8.924;2024-02-23T12:37:02;6.20;;;5.70;;
1991;SDS011;997;48.448;8.924;2024-02-23T12:39:29;5.03;;;3.60;;
1991;SDS011;997;48.448;8.924;2024-02-23T12:41:54;10.07;;;8.17;;
1991;SDS011;997;48.448;8.924;2024-02-23T12:44:22;7.97;;;6.97;;
1991;SDS011;997;48.448;8.924;2024-02-23T12:46:47;9.17;;;8.33;;
1991;SDS011;997;48.448;8.924;2024-02-23T12:49:13;10.17;;;5.83;;
1991;SDS011;997;48.448;8.924;2024-02-23T12:51:41;6.33;;;4.10;;
1991;SDS011;997;48.448;8.924;2024-02-23T12:54:06;9.30;;;5.27;;
1991;SDS011;997;48.448;8.924;2024-02-23T12:56:32;4.07;;;2.50;;
1991;SDS011;997;48.448;8.924;2024-02-23T12:58:58;4.33;;;2.47;;
1991;SDS011;997;48.448;8.924;2024-02-23T13:01:24;3.03;;;2.20;;
1991;SDS011;997;48.448;8.924;2024-02-23T13:03:49;6.80;;;3.37;;
1991;SDS011;997;48.448;8.924;2024-02-23T13:06:15;2.73;;;1.80;;
1991;SDS011;997;48.448;8.924;2024-02-23T13:08:40;1.73;;;1.30;;
1991;SDS011;997;48.448;8.924;2024-02-23T13:11:07;5.07;;;2.03;;
1991;SDS011;997;48.448;8.924;2024-02-23T13:13:33;2.77;;;1.63;;
1991;SDS011;997;48.448;8.924;2024-02-23T13:15:59;2.27;;;1.40;;
1991;SDS011;997;48.448;8.924;2024-02-23T13:18:25;2.40;;;1.67;;
1991;SDS011;997;48.448;8.924;2024-02-23T13:20:50;6.13;;;4.20;;
1991;SDS011;997;48.448;8.924;2024-02-23T13:23:16;2.30;;;2.10;;
1991;SDS011;997;48.448;8.924;2024-02-23T13:25:42;5.60;;;2.30;;
1991;SDS011;997;48.448;8.924;2024-02-23T13:28:10;2.67;;;1.40;;
1991;SDS011;997;48.448;8.924;2024-02-23T13:30:36;3.00;;;1.87;;
1991;SDS011;997;48.448;8.924;2024-02-23T13:33:02;5.90;;;3.40;;
1991;SDS011;997;48.448;8.924;2024-02-23T13:35:28;6.70;;;2.13;;
1991;SDS011;997;48.448;8.924;2024-02-23T13:37:54;3.30;;;1.40;;
1991;SDS011;997;48.448;8.924;2024-02-23T13:40:20;4.10;;;1.80;;
1991;SDS011;997;48.448;8.924;2024-02-23T13:42:45;5.93;;;2.17;;
1991;SDS011;997;48.448;8.924;2024-02-23T13:45:15;2.07;;;1.20;;
1991;SDS011;997;48.448;8.924;2024-02-23T13:47:41;4.43;;;1.80;;
1991;SDS011;997;48.448;8.924;2024-02-23T13:50:09;2.23;;;1.50;;
1991;SDS011;997;48.448;8.924;2024-02-23T13:52:35;4.43;;;1.73;;
1991;SDS011;997;48.448;8.924;2024-02-23T13:55:02;3.10;;;2.57;;
1991;SDS011;997;48.448;8.924;2024-02-23T13:57:27;6.17;;;1.63;;
1991;SDS011;997;48.448;8.924;2024-02-23T13:59:54;2.20;;;2.00;;
1991;SDS011;997;48.448;8.924;2024-02-23T14:02:24;2.17;;;1.20;;
1991;SDS011;997;48.448;8.924;2024-02-23T14:04:51;2.27;;;1.43;;
1991;SDS011;997;48.448;8.924;2024-02-23T14:07:17;1.67;;;1.57;;
1991;SDS011;997;48.448;8.924;2024-02-23T14:09:43;3.17;;;2.53;;
1991;SDS011;997;48.448;8.924;2024-02-23T14:12:08;4.23;;;2.13;;
1991;SDS011;997;48.448;8.924;2024-02-23T14:14:34;3.27;;;2.07;;
1991;SDS011;997;48.448;8.924;2024-02-23T14:17:00;3.97;;;2.60;;
1991;SDS011;997;48.448;8.924;2024-02-23T14:19:25;6.30;;;5.67;;
1991;SDS011;997;48.448;8.924;2024-02-23T14:21:51;5.33;;;3.37;;
1991;SDS011;997;48.448;8.924;2024-02-23T14:24:17;7.70;;;4.33;;
1991;SDS011;997;48.448;8.924;2024-02-23T14:26:43;4.83;;;4.10;;
1991;SDS011;997;48.448;8.924;2024-02-23T14:29:09;5.90;;;5.40;;
1991;SDS011;997;48.448;8.924;2024-02-23T14:31:34;7.50;;;4.07;;
1991;SDS011;997;48.448;8.924;2024-02-23T14:34:00;6.33;;;3.83;;
1991;SDS011;997;48.448;8.924;2024-02-23T14:36:26;6.87;;;3.33;;
1991;SDS011;997;48.448;8.924;2024-02-23T14:38:52;4.30;;;3.90;;
1991;SDS011;997;48.448;8.924;2024-02-23T14:41:17;3.60;;;2.50;;
1991;SDS011;997;48.448;8.924;2024-02-23T14:43:43;6.60;;;2.87;;
1991;SDS011;997;48.448;8.924;2024-02-23T14:46:09;2.20;;;1.40;;
1991;SDS011;997;48.448;8.924;2024-02-23T14:48:35;2.97;;;1.90;;
1991;SDS011;997;48.448;8.924;2024-02-23T14:51:00;4.13;;;1.80;;
1991;SDS011;997;48.448;8.924;2024-02-23T14:53:29;4.73;;;4.07;;
1991;SDS011;997;48.448;8.924;2024-02-23T14:55:54;8.10;;;7.30;;
1991;SDS011;997;48.448;8.924;2024-02-23T14:58:20;6.87;;;6.37;;
1991;SDS011;997;48.448;8.924;2024-02-23T15:00:46;9.03;;;5.33;;
1991;SDS011;997;48.448;8.924;2024-02-23T15:03:12;7.70;;;6.40;;
1991;SDS011;997;48.448;8.924;2024-02-23T15:05:39;13.53;;;12.20;;
1991;SDS011;997;48.448;8.924;2024-02-23T15:08:05;19.90;;;17.80;;
1991;SDS011;997;48.448;8.924;2024-02-23T15:10:32;20.10;;;18.17;;
1991;SDS011;997;48.448;8.924;2024-02-23T15:12:58;6.70;;;5.70;;
1991;SDS011;997;48.448;8.924;2024-02-23T15:15:24;9.93;;;8.93;;
1991;SDS011;997;48.448;8.924;2024-02-23T15:17:49;5.47;;;2.73;;
1991;SDS011;997;48.448;8.924;2024-02-23T15:20:15;6.30;;;4.10;;
1991;SDS011;997;48.448;8.924;2024-02-23T15:22:41;4.27;;;2.70;;
1991;SDS011;997;48.448;8.924;2024-02-23T15:25:08;4.13;;;2.17;;